Time;durP1;ratioP1;P1;durP2;ratioP2;P2;SDS_P1;SDS_P2;PMS_P1;PMS_P2;Temp;Humidity;BMP_temperature;BMP_pressure;BME280_temperature;BME280_humidity;BME280_pressure;Samples;Min_cycle;Max_cycle;Signal;HPM_P1;HPM_P2
2020/03/19 00:01:03;;;;;;;9.4;6.4;;;;;;;7.75;77.12891;945.7681;;;;
2020/03/19 00:05:07;;;;;;;8.8;6.1;;;;;;;7.59;77.92773;945.7358;;;;
2020/03/19 00:05:53;;;;;;;8.1;6;;;;;;;7.76;77.04004;945.76;;;;
2020/03/19 00:08:23;;;;;;;7.4;5.8;;;;;;;7.69;77.32129;945.7648;;;;
2020/03/19 00:10:45;;;;;;;6.6;5.5;;;;;;;7.66;77.25977;945.7139;;;;
2020/03/19 00:13:12;;;;;;;7.5;5.6;;;;;;;7.64;77.0625;945.6909;;;;
2020/03/19 00:15:37;;;;;;;8.7;5.4;;;;;;;7.7;76.49512;945.7008;;;;
2020/03/19 00:18:02;;;;;;;10.2;6.4;;;;;;;7.53;76.96387;945.6738;;;;
2020/03/19 00:20:27;;;;;;;9.6;6.4;;;;;;;7.59;76.39648;945.693;;;;
2020/03/19 00:22:53;;;;;;;9.3;6.8;;;;;;;7.49;76.53711;945.6312;;;;
2020/03/19 00:26:52;;;;;;;10.4;7;;;;;;;7.32;77.61914;945.6199;;;;
2020/03/19 00:29:18;;;;;;;11;7.1;;;;;;;7.35;77.33887;945.5977;;;;
2020/03/19 00:31:43;;;;;;;9.8;6.5;;;;;;;7.23;77.99609;945.6135;;;;
2020/03/19 00:34:08;;;;;;;10.5;5.9;;;;;;;7.21;78.11914;945.5645;;;;
2020/03/19 00:36:33;;;;;;;9.7;6;;;;;;;7.35;77.50879;945.6247;;;;
2020/03/19 00:38:59;;;;;;;7.4;5.4;;;;;;;7.39;77.25684;945.5673;;;;
2020/03/19 00:41:24;;;;;;;7.9;5.9;;;;;;;7.22;77.67871;945.5245;;;;
2020/03/19 00:43:49;;;;;;;8.7;6.4;;;;;;;7.01;78.19629;945.623;;;;
2020/03/19 00:46:14;;;;;;;14.9;8.2;;;;;;;6.9;78.55957;945.6063;;;;
2020/03/19 00:48:39;;;;;;;12.7;7.8;;;;;;;6.79;79.15234;945.6008;;;;
2020/03/19 00:51:04;;;;;;;12.8;7.2;;;;;;;6.85;78.82324;945.5578;;;;
2020/03/19 00:53:29;;;;;;;9.5;6.5;;;;;;;6.94;78.48828;945.5158;;;;
2020/03/19 00:55:54;;;;;;;9.5;5.9;;;;;;;6.84;78.92383;945.5609;;;;
2020/03/19 00:58:19;;;;;;;7.8;5.3;;;;;;;6.83;79.13867;945.4902;;;;
2020/03/19 01:00:45;;;;;;;7.4;5;;;;;;;6.82;79.06738;945.5173;;;;
2020/03/19 01:03:10;;;;;;;6.3;4.8;;;;;;;6.92;78.65527;945.4947;;;;
2020/03/19 01:05:35;;;;;;;8.4;4.7;;;;;;;6.83;79.20508;945.4796;;;;
2020/03/19 01:08:00;;;;;;;6.9;5.2;;;;;;;6.88;79.05664;945.3998;;;;
2020/03/19 01:10:25;;;;;;;13.5;5.3;;;;;;;7;79.05566;945.462;;;;
2020/03/19 01:12:50;;;;;;;6.7;4.4;;;;;;;7.01;78.7959;945.4016;;;;
2020/03/19 01:15:15;;;;;;;7.7;4.3;;;;;;;7.05;78.42969;945.4014;;;;
2020/03/19 01:17:40;;;;;;;7.1;4.4;;;;;;;7.02;78.25488;945.421;;;;
2020/03/19 01:20:05;;;;;;;7;4.7;;;;;;;6.79;79.9209;945.4353;;;;
2020/03/19 01:22:31;;;;;;;12.3;6.9;;;;;;;6.85;79.33301;945.4202;;;;
2020/03/19 01:24:57;;;;;;;16.6;9.4;;;;;;;6.8;79.43555;945.4158;;;;
2020/03/19 01:27:22;;;;;;;13.7;9.3;;;;;;;6.59;80.65332;945.4506;;;;
2020/03/19 01:29:47;;;;;;;10.7;7.9;;;;;;;6.55;80.60254;945.4922;;;;
2020/03/19 01:32:12;;;;;;;10.6;7.6;;;;;;;6.52;80.47168;945.4729;;;;
2020/03/19 01:34:37;;;;;;;8.7;6.3;;;;;;;6.42;81.02832;945.4722;;;;
2020/03/19 01:37:02;;;;;;;8.9;6.6;;;;;;;6.44;81.04297;945.4706;;;;
2020/03/19 01:39:28;;;;;;;8.6;6.3;;;;;;;6.45;80.67285;945.5233;;;;
2020/03/19 01:41:54;;;;;;;10.5;6.4;;;;;;;6.51;80.54883;945.5019;;;;
2020/03/19 01:44:19;;;;;;;10;6.3;;;;;;;6.63;79.60938;945.4645;;;;
2020/03/19 01:46:44;;;;;;;12;8.1;;;;;;;6.47;79.81641;945.4615;;;;
2020/03/19 01:49:09;;;;;;;14.5;10.4;;;;;;;6.36;80.07715;945.488;;;;
2020/03/19 01:51:36;;;;;;;15.3;11.4;;;;;;;6.32;79.93652;945.4171;;;;
2020/03/19 01:54:00;;;;;;;17.3;11.2;;;;;;;6.23;80.23438;945.4239;;;;
2020/03/19 01:56:25;;;;;;;13.1;8.5;;;;;;;6.11;80.89063;945.3275;;;;
2020/03/19 01:58:50;;;;;;;8.9;6.2;;;;;;;6.09;80.97754;945.3783;;;;
2020/03/19 02:01:15;;;;;;;8.5;6;;;;;;;6.18;80.63281;945.3531;;;;
2020/03/19 02:03:40;;;;;;;8.3;5.9;;;;;;;6.31;79.86523;945.3859;;;;
2020/03/19 02:06:06;;;;;;;7;4.7;;;;;;;6.38;79.7207;945.4175;;;;
2020/03/19 02:08:31;;;;;;;6.3;4.7;;;;;;;6.34;80.08496;945.243;;;;
2020/03/19 02:10:56;;;;;;;7.6;4.8;;;;;;;6.44;79.95898;945.2247;;;;
2020/03/19 02:13:23;;;;;;;5.8;4.5;;;;;;;6.36;79.74023;945.341;;;;
2020/03/19 02:15:47;;;;;;;11.1;7.2;;;;;;;6.26;80.07227;945.3287;;;;
2020/03/19 02:18:12;;;;;;;14.4;8.2;;;;;;;6.09;81.40723;945.3283;;;;
2020/03/19 02:20:37;;;;;;;14.6;7.9;;;;;;;6.13;81.22168;945.3552;;;;
2020/03/19 02:23:02;;;;;;;11.5;6.9;;;;;;;6.27;80.41309;945.3417;;;;
2020/03/19 02:25:28;;;;;;;8.4;5.9;;;;;;;6.1;80.86621;945.3239;;;;
2020/03/19 02:27:53;;;;;;;7.1;5.3;;;;;;;6;81.24316;945.2046;;;;
2020/03/19 02:30:18;;;;;;;10.6;5.8;;;;;;;5.83;82.16992;945.2317;;;;
2020/03/19 02:32:43;;;;;;;9.7;6.6;;;;;;;5.9;81.7998;945.2748;;;;
2020/03/19 02:35:08;;;;;;;8.5;6.1;;;;;;;6.02;80.94336;945.348;;;;
2020/03/19 02:37:33;;;;;;;8.8;6.8;;;;;;;6.1;80.58398;945.4094;;;;
2020/03/19 02:39:58;;;;;;;9.7;7.2;;;;;;;6.05;80.38184;945.3354;;;;
2020/03/19 02:42:23;;;;;;;10.5;7.1;;;;;;;5.85;81.43945;945.4023;;;;
2020/03/19 02:44:48;;;;;;;10.6;8;;;;;;;5.91;80.72754;945.3669;;;;
2020/03/19 02:47:14;;;;;;;12.1;8.6;;;;;;;6.03;79.80371;945.2346;;;;
2020/03/19 02:49:39;;;;;;;13;8.8;;;;;;;5.98;79.75977;945.2788;;;;
2020/03/19 02:52:04;;;;;;;10.6;7.6;;;;;;;5.99;79.85156;945.2072;;;;
2020/03/19 02:54:29;;;;;;;12.2;7.5;;;;;;;6.06;79.41113;945.2725;;;;
2020/03/19 02:56:54;;;;;;;9.3;6.6;;;;;;;6.05;79.51172;945.2303;;;;
2020/03/19 02:59:19;;;;;;;12.4;8.4;;;;;;;5.99;79.75;945.3036;;;;
2020/03/19 03:01:44;;;;;;;14;8.8;;;;;;;5.97;80.0625;945.3195;;;;
2020/03/19 03:04:09;;;;;;;13.1;8.3;;;;;;;5.86;80.41406;945.285;;;;
2020/03/19 03:06:34;;;;;;;11.4;7;;;;;;;5.72;81.21289;945.2944;;;;
2020/03/19 03:09:00;;;;;;;15.8;7.4;;;;;;;5.79;80.8418;945.3375;;;;
2020/03/19 03:11:25;;;;;;;17.3;9.5;;;;;;;5.88;80.31543;945.2921;;;;
2020/03/19 03:13:50;;;;;;;10.5;7;;;;;;;5.91;79.93848;945.2461;;;;
2020/03/19 03:16:15;;;;;;;13.9;7.6;;;;;;;5.85;80.10742;945.3463;;;;
2020/03/19 03:18:40;;;;;;;14.7;8.4;;;;;;;5.84;79.85645;945.3118;;;;
2020/03/19 03:21:05;;;;;;;23.8;13.2;;;;;;;5.77;79.86621;945.305;;;;
2020/03/19 03:23:31;;;;;;;14.8;8.9;;;;;;;5.51;81.16211;945.2684;;;;
2020/03/19 03:25:56;;;;;;;16;9.7;;;;;;;5.41;81.83105;945.2913;;;;
2020/03/19 03:28:21;;;;;;;12.9;8.3;;;;;;;5.56;81.07031;945.2856;;;;
2020/03/19 03:30:46;;;;;;;12.5;7.7;;;;;;;5.65;80.5459;945.2595;;;;
2020/03/19 03:33:11;;;;;;;11;7.6;;;;;;;5.68;80.04102;945.3054;;;;
2020/03/19 03:35:36;;;;;;;17.4;11.7;;;;;;;5.65;80.56836;945.3306;;;;
2020/03/19 03:38:02;;;;;;;24.9;14.3;;;;;;;5.52;81.43457;945.2926;;;;
2020/03/19 03:40:27;;;;;;;15.5;11.1;;;;;;;5.56;81.29395;945.2728;;;;
2020/03/19 03:42:55;;;;;;;14.9;9.2;;;;;;;5.61;80.98828;945.2403;;;;
2020/03/19 03:45:18;;;;;;;14.4;9.3;;;;;;;5.69;80.51855;945.3311;;;;
2020/03/19 03:47:43;;;;;;;14.2;9.3;;;;;;;5.65;80.43262;945.2958;;;;
2020/03/19 03:50:08;;;;;;;13.9;8.1;;;;;;;5.68;80.16699;945.3483;;;;
2020/03/19 03:52:33;;;;;;;14.6;8.8;;;;;;;5.64;80.21484;945.3198;;;;
2020/03/19 03:54:59;;;;;;;24.9;13;;;;;;;5.68;79.93945;945.2839;;;;
2020/03/19 03:57:24;;;;;;;24.1;13.2;;;;;;;5.7;79.75098;945.3331;;;;
2020/03/19 03:59:50;;;;;;;20.4;10.8;;;;;;;5.69;79.58203;945.2681;;;;
2020/03/19 04:02:30;;;;;;;13.8;7.9;;;;;;;5.67;79.9043;945.3318;;;;
2020/03/19 04:04:55;;;;;;;14.7;8.4;;;;;;;5.72;79.60938;945.3119;;;;
2020/03/19 04:07:20;;;;;;;10.9;7.3;;;;;;;5.49;80.85156;945.2645;;;;
2020/03/19 04:09:45;;;;;;;12.7;8.5;;;;;;;5.43;81.30469;945.3214;;;;
2020/03/19 04:12:10;;;;;;;15.8;9.5;;;;;;;5.55;80.6377;945.3434;;;;
2020/03/19 04:14:35;;;;;;;15;9;;;;;;;5.55;80.5127;945.3284;;;;
2020/03/19 04:17:00;;;;;;;12.5;8.7;;;;;;;5.52;80.81348;945.3147;;;;
2020/03/19 04:19:25;;;;;;;15.1;9.6;;;;;;;5.47;80.66992;945.3113;;;;
2020/03/19 04:21:50;;;;;;;15.3;9.4;;;;;;;5.41;80.81543;945.3285;;;;
2020/03/19 04:24:15;;;;;;;27.1;14.2;;;;;;;5.33;80.73242;945.2406;;;;
2020/03/19 04:26:40;;;;;;;30.2;14.8;;;;;;;5.29;80.65625;945.3423;;;;
2020/03/19 04:29:06;;;;;;;24;12.1;;;;;;;5.27;80.73242;945.3597;;;;
2020/03/19 04:31:31;;;;;;;17.1;10.1;;;;;;;5.28;80.59961;945.327;;;;
2020/03/19 04:33:57;;;;;;;15.5;9.1;;;;;;;5.21;81.00195;945.3681;;;;
2020/03/19 04:36:22;;;;;;;17.1;9.5;;;;;;;5.19;81.22363;945.3094;;;;
2020/03/19 04:38:47;;;;;;;26.4;13.2;;;;;;;5.28;80.90234;945.3631;;;;
2020/03/19 04:41:12;;;;;;;36.1;14.8;;;;;;;5.34;80.57617;945.3168;;;;
2020/03/19 04:43:38;;;;;;;34.5;14.7;;;;;;;5.33;80.73242;945.3505;;;;
2020/03/19 04:46:03;;;;;;;37.3;16.3;;;;;;;5.31;80.61621;945.3778;;;;
2020/03/19 04:48:28;;;;;;;30.4;14.8;;;;;;;5.23;81.27637;945.3452;;;;
2020/03/19 04:50:54;;;;;;;38.1;17.6;;;;;;;5.24;81.25684;945.3364;;;;
2020/03/19 04:53:19;;;;;;;23.4;11.8;;;;;;;5.21;81.1377;945.3304;;;;
2020/03/19 04:55:44;;;;;;;17.8;8.8;;;;;;;5.16;81.41016;945.2555;;;;
2020/03/19 04:58:09;;;;;;;23.9;10.4;;;;;;;5.13;81.41699;945.3441;;;;
2020/03/19 05:00:34;;;;;;;12.3;6.6;;;;;;;4.95;82.3291;945.2592;;;;
2020/03/19 05:03:00;;;;;;;13.7;7;;;;;;;4.97;82.19531;945.3829;;;;
2020/03/19 05:05:25;;;;;;;20.2;9.7;;;;;;;4.99;82.07715;945.3278;;;;
2020/03/19 05:07:50;;;;;;;20.6;11;;;;;;;4.94;82.2373;945.385;;;;
2020/03/19 05:10:15;;;;;;;25.3;13.6;;;;;;;4.85;82.64746;945.3654;;;;
2020/03/19 05:12:40;;;;;;;19.4;11.1;;;;;;;4.88;82.76563;945.3825;;;;
2020/03/19 05:15:06;;;;;;;18.7;10;;;;;;;4.98;82.33398;945.4149;;;;
2020/03/19 05:17:31;;;;;;;30.4;11.9;;;;;;;4.99;82.24707;945.3644;;;;
2020/03/19 05:19:56;;;;;;;17.8;10.1;;;;;;;4.89;82.4082;945.361;;;;
2020/03/19 05:22:21;;;;;;;12.9;7.5;;;;;;;4.88;82.54004;945.3903;;;;
2020/03/19 05:24:46;;;;;;;11;6.4;;;;;;;4.78;83.11816;945.3519;;;;
2020/03/19 05:27:11;;;;;;;19.9;12.1;;;;;;;4.82;83.25098;945.3745;;;;
2020/03/19 05:29:36;;;;;;;20.7;11;;;;;;;4.93;83.25879;945.3679;;;;
2020/03/19 05:32:02;;;;;;;20.7;10.8;;;;;;;5;82.82422;945.3465;;;;
2020/03/19 05:34:27;;;;;;;18.7;9.7;;;;;;;5.17;81.96484;945.308;;;;
2020/03/19 05:36:52;;;;;;;14.8;8.9;;;;;;;5.22;81.50195;945.3506;;;;
2020/03/19 05:39:17;;;;;;;20.1;9.5;;;;;;;5.23;81.20996;945.3448;;;;
2020/03/19 05:41:42;;;;;;;17.3;10.3;;;;;;;5.23;80.92676;945.3674;;;;
2020/03/19 05:44:07;;;;;;;14.2;8.7;;;;;;;5.23;80.92676;945.3847;;;;
2020/03/19 05:46:32;;;;;;;12;7;;;;;;;5.26;80.40332;945.3412;;;;
2020/03/19 05:48:58;;;;;;;12.1;6.1;;;;;;;5.32;80.01855;945.2889;;;;
2020/03/19 05:51:23;;;;;;;13.1;5.8;;;;;;;5.12;80.99609;945.3681;;;;
2020/03/19 05:53:48;;;;;;;15.5;5.5;;;;;;;5.08;81.51953;945.3664;;;;
2020/03/19 05:56:13;;;;;;;15.7;6.7;;;;;;;5.06;82.12305;945.3491;;;;
2020/03/19 05:58:38;;;;;;;12.5;6.8;;;;;;;5.2;82.03809;945.3328;;;;
2020/03/19 06:01:03;;;;;;;15.6;8.6;;;;;;;5.63;80.91309;945.3627;;;;
2020/03/19 06:03:28;;;;;;;15.1;9.6;;;;;;;6.5;77.16309;945.2489;;;;
2020/03/19 06:05:54;;;;;;;23.5;13.9;;;;;;;7.16;73.97559;945.2847;;;;
2020/03/19 06:08:19;;;;;;;22.6;13.6;;;;;;;8.09;70.32031;945.3005;;;;
2020/03/19 06:10:44;;;;;;;34.2;11.6;;;;;;;9.04;66.50391;945.2486;;;;
2020/03/19 06:13:09;;;;;;;32.1;10.8;;;;;;;9.76;63.61816;945.2842;;;;
2020/03/19 06:15:34;;;;;;;25.8;11.1;;;;;;;10.51;60.89844;945.2905;;;;
2020/03/19 06:18:01;;;;;;;42.3;16.6;;;;;;;11;59.10449;945.2457;;;;
2020/03/19 06:20:26;;;;;;;75.5;31.8;;;;;;;11.33;57.66113;945.3184;;;;
2020/03/19 06:22:51;;;;;;;60;25.6;;;;;;;11.71;57.03809;945.2985;;;;
2020/03/19 06:25:16;;;;;;;65;28;;;;;;;12.35;54.67871;945.2837;;;;
2020/03/19 06:27:41;;;;;;;68.1;28.5;;;;;;;12.84;53.24902;945.1854;;;;
2020/03/19 06:30:06;;;;;;;72.6;32.5;;;;;;;13.31;52.52441;945.2153;;;;
2020/03/19 06:32:32;;;;;;;43.8;19.4;;;;;;;14.02;50.22754;945.29;;;;
2020/03/19 06:34:57;;;;;;;20.6;8.7;;;;;;;13.66;49.07129;945.2393;;;;
2020/03/19 06:37:22;;;;;;;34.5;14.8;;;;;;;13.9;52.02051;945.2599;;;;
2020/03/19 06:39:47;;;;;;;26.2;14.4;;;;;;;14.49;48.57617;945.2739;;;;
2020/03/19 06:42:12;;;;;;;35;17.4;;;;;;;13.93;49.7334;945.2745;;;;
2020/03/19 06:44:37;;;;;;;18;9.5;;;;;;;13.23;51.63086;945.2761;;;;
2020/03/19 06:47:03;;;;;;;22.6;10;;;;;;;13.52;51.14648;945.2792;;;;
2020/03/19 06:49:28;;;;;;;13.7;5.8;;;;;;;12.98;52.42773;945.2598;;;;
2020/03/19 06:51:54;;;;;;;13.2;6;;;;;;;12.58;53.46777;945.2878;;;;
2020/03/19 06:54:19;;;;;;;12.7;5.6;;;;;;;12.47;54.54395;945.2233;;;;
2020/03/19 06:56:44;;;;;;;11;5.1;;;;;;;12.74;53.44336;945.188;;;;
2020/03/19 06:59:09;;;;;;;11.9;4.8;;;;;;;13.6;50.99512;945.2015;;;;
2020/03/19 07:01:35;;;;;;;14.8;4.9;;;;;;;14.17;49.20898;945.2502;;;;
2020/03/19 07:04:01;;;;;;;14;4.7;;;;;;;14.42;48.70801;945.1931;;;;
2020/03/19 07:06:26;;;;;;;19.1;4.2;;;;;;;14.66;48.37695;945.2109;;;;
2020/03/19 07:08:51;;;;;;;11.8;3.4;;;;;;;15.31;46.63574;945.1403;;;;
2020/03/19 07:11:16;;;;;;;8;3.1;;;;;;;14.97;46.20703;945.235;;;;
2020/03/19 07:13:42;;;;;;;9.6;2.6;;;;;;;15.19;45.76953;945.1575;;;;
2020/03/19 07:16:07;;;;;;;6.8;2.4;;;;;;;15.37;46.05371;945.142;;;;
2020/03/19 07:18:35;;;;;;;8.5;2.4;;;;;;;15.85;46.06934;945.1663;;;;
2020/03/19 07:20:57;;;;;;;3.5;1.8;;;;;;;16.48;44.52734;945.1071;;;;
2020/03/19 07:23:22;;;;;;;6;2.3;;;;;;;16.27;42.94336;945.1225;;;;
2020/03/19 07:25:47;;;;;;;7.5;2.4;;;;;;;16.31;43.38672;945.1208;;;;
2020/03/19 07:28:12;;;;;;;4.8;2.1;;;;;;;16.2;42.77539;945.0925;;;;
2020/03/19 07:30:37;;;;;;;7.8;2.6;;;;;;;15.61;44.38184;945.1664;;;;
2020/03/19 07:33:02;;;;;;;5;1.7;;;;;;;16.1;43.18262;945.0734;;;;
2020/03/19 07:35:30;;;;;;;7.2;1.9;;;;;;;16.79;42.8916;945.0754;;;;
2020/03/19 07:37:52;;;;;;;9.7;2.2;;;;;;;17.2;40.75195;945.0734;;;;
2020/03/19 07:40:18;;;;;;;10.4;2;;;;;;;18.58;38.29688;945.0545;;;;
2020/03/19 07:42:44;;;;;;;11.6;2.6;;;;;;;19.72;37.24219;945.0286;;;;
2020/03/19 07:45:08;;;;;;;6.8;2.1;;;;;;;20.68;35.1377;945.045;;;;
2020/03/19 07:47:33;;;;;;;5.6;1.9;;;;;;;20.85;32.42773;945.0365;;;;
2020/03/19 07:49:58;;;;;;;7.7;2.2;;;;;;;20.71;32.46387;944.9944;;;;
2020/03/19 07:52:23;;;;;;;5.8;1.7;;;;;;;20.53;31.82031;944.9803;;;;
2020/03/19 07:54:49;;;;;;;8.8;2.2;;;;;;;20.08;33.05957;944.9953;;;;
2020/03/19 07:57:14;;;;;;;7.7;2;;;;;;;19.33;34.56445;944.9921;;;;
2020/03/19 07:59:39;;;;;;;6.9;2.1;;;;;;;20.07;33.67773;944.9769;;;;
2020/03/19 08:02:04;;;;;;;6.7;2;;;;;;;21.4;31.83594;944.9061;;;;
2020/03/19 08:04:30;;;;;;;7.2;2;;;;;;;22.1;30.50293;944.9473;;;;
2020/03/19 08:06:55;;;;;;;4.5;1.9;;;;;;;22.72;29.43066;944.9559;;;;
2020/03/19 08:09:20;;;;;;;8.7;1.9;;;;;;;23.64;28.75;944.8918;;;;
2020/03/19 08:11:45;;;;;;;5.3;2;;;;;;;24.49;25.99902;944.8425;;;;
2020/03/19 08:14:10;;;;;;;6.4;1.8;;;;;;;22.74;28.03418;944.8929;;;;
2020/03/19 08:16:35;;;;;;;6.4;1.9;;;;;;;23.17;28.15527;944.8576;;;;
2020/03/19 08:19:00;;;;;;;4.7;1.7;;;;;;;24.03;27.11523;944.863;;;;
2020/03/19 08:21:25;;;;;;;5.1;2;;;;;;;24.32;26.80273;944.7803;;;;
2020/03/19 08:23:50;;;;;;;5.3;2;;;;;;;25.2;25.98145;944.8145;;;;
2020/03/19 08:26:16;;;;;;;7.4;1.7;;;;;;;24.85;26.76367;944.8035;;;;
2020/03/19 08:28:41;;;;;;;7.9;2.1;;;;;;;26.11;24.37891;944.8161;;;;
2020/03/19 08:31:06;;;;;;;5.5;1.5;;;;;;;26.13;24.95996;944.8412;;;;
2020/03/19 08:33:31;;;;;;;4.6;1.5;;;;;;;27.52;23.18555;944.8109;;;;
2020/03/19 08:35:56;;;;;;;5.9;1.7;;;;;;;28.07;21.82422;944.801;;;;
2020/03/19 08:38:21;;;;;;;5.2;1.6;;;;;;;27.35;22.82129;944.7676;;;;
2020/03/19 08:40:46;;;;;;;3.9;1.6;;;;;;;27.49;23.25488;944.8345;;;;
2020/03/19 08:43:12;;;;;;;4.5;1.5;;;;;;;25.85;23.0293;944.8145;;;;
2020/03/19 08:45:36;;;;;;;7.3;1.8;;;;;;;25.17;24.59961;944.7648;;;;
2020/03/19 08:48:01;;;;;;;6.5;1.4;;;;;;;25.76;22.87012;944.7502;;;;
2020/03/19 08:50:26;;;;;;;2.7;1.5;;;;;;;26.34;24.23828;944.7497;;;;
2020/03/19 08:52:52;;;;;;;3.6;1.4;;;;;;;27.05;24.64355;944.7556;;;;
2020/03/19 08:55:17;;;;;;;4.6;1.7;;;;;;;28.52;21.67969;944.6885;;;;
2020/03/19 08:57:42;;;;;;;5.6;1.5;;;;;;;28.71;20.27344;944.6613;;;;
2020/03/19 09:00:08;;;;;;;5.3;1.5;;;;;;;27.92;21.58008;944.6316;;;;
2020/03/19 09:02:33;;;;;;;6.8;1.6;;;;;;;28.71;21.86719;944.6603;;;;
2020/03/19 09:04:58;;;;;;;4.4;1.7;;;;;;;29.61;20.74316;944.5964;;;;
2020/03/19 09:07:23;;;;;;;5.7;1.4;;;;;;;30.25;20.10352;944.6017;;;;
2020/03/19 09:09:49;;;;;;;7.6;1.9;;;;;;;30.65;19.33301;944.6046;;;;
2020/03/19 09:12:14;;;;;;;6;1.7;;;;;;;30.4;19.10742;944.5988;;;;
2020/03/19 09:14:39;;;;;;;4;1.5;;;;;;;29.77;19.17578;944.5591;;;;
2020/03/19 09:17:04;;;;;;;4.3;1.4;;;;;;;30.23;19.54102;944.5187;;;;
2020/03/19 09:19:29;;;;;;;4.4;1.5;;;;;;;30.31;19.15137;944.5316;;;;
2020/03/19 09:21:55;;;;;;;3.4;1.5;;;;;;;29.72;19.2334;944.4811;;;;
2020/03/19 09:24:20;;;;;;;7;3.3;;;;;;;30.03;19.98535;944.4623;;;;
2020/03/19 09:26:45;;;;;;;3.2;2;;;;;;;30;20.21191;944.4294;;;;
2020/03/19 09:29:10;;;;;;;2.3;1.4;;;;;;;30.65;19.52344;944.4339;;;;
2020/03/19 09:31:35;;;;;;;5.4;1.5;;;;;;;30.52;19.43457;944.4115;;;;
2020/03/19 09:34:00;;;;;;;2.7;1.2;;;;;;;29.66;19.57617;944.3798;;;;
2020/03/19 09:36:26;;;;;;;6.1;1.6;;;;;;;29.09;20.34961;944.3373;;;;
2020/03/19 09:38:51;;;;;;;5.8;2;;;;;;;29.15;20.8877;944.327;;;;
2020/03/19 09:41:17;;;;;;;5.2;1.6;;;;;;;28.88;21.48242;944.382;;;;
2020/03/19 09:43:42;;;;;;;6.3;1.8;;;;;;;28.78;21.71582;944.2961;;;;
2020/03/19 09:46:07;;;;;;;4.2;1.7;;;;;;;29.19;21.96191;944.3682;;;;
2020/03/19 09:48:33;;;;;;;3.1;1.5;;;;;;;29.07;20.81348;944.3016;;;;
2020/03/19 09:50:58;;;;;;;7.2;2.1;;;;;;;28.59;22.26563;944.3024;;;;
2020/03/19 09:53:23;;;;;;;5.1;1.6;;;;;;;28.09;22.03906;944.293;;;;
2020/03/19 09:55:48;;;;;;;3.7;1.5;;;;;;;27.33;23.38965;944.2097;;;;
2020/03/19 09:58:13;;;;;;;5.8;1.5;;;;;;;27.3;21.91699;944.2817;;;;
2020/03/19 10:00:38;;;;;;;2.5;1.4;;;;;;;27.43;22.38672;944.2585;;;;
2020/03/19 10:03:04;;;;;;;6.7;1.7;;;;;;;27.43;22.74219;944.1594;;;;
2020/03/19 10:05:29;;;;;;;4.6;1.6;;;;;;;27.28;23.36328;944.1008;;;;
2020/03/19 10:07:54;;;;;;;4.7;2.1;;;;;;;26.77;24.13086;944.1277;;;;
2020/03/19 10:10:19;;;;;;;5;2.3;;;;;;;26.4;25.24707;944.1283;;;;
2020/03/19 10:12:44;;;;;;;7.2;2;;;;;;;26.6;24.50098;944.1071;;;;
2020/03/19 10:15:10;;;;;;;6.2;2;;;;;;;26.86;24.18262;944.0269;;;;
2020/03/19 10:17:34;;;;;;;3.6;1.7;;;;;;;26.03;24.84766;944.0528;;;;
2020/03/19 10:19:59;;;;;;;6.3;2.2;;;;;;;26.05;25.2627;944.0331;;;;
2020/03/19 10:22:24;;;;;;;5;2.1;;;;;;;26.68;24.6582;943.9756;;;;
2020/03/19 10:24:50;;;;;;;4.3;2.2;;;;;;;26.87;24.88184;943.9993;;;;
2020/03/19 10:27:16;;;;;;;3.9;2.3;;;;;;;26.5;26.30566;943.9644;;;;
2020/03/19 10:29:41;;;;;;;6.7;2.5;;;;;;;26.88;25.38086;943.8928;;;;
2020/03/19 10:32:06;;;;;;;4.1;2.4;;;;;;;27.41;24.20117;943.8591;;;;
2020/03/19 10:34:32;;;;;;;3.9;2.1;;;;;;;27.56;23.80566;943.7679;;;;
2020/03/19 10:36:57;;;;;;;7.3;2.5;;;;;;;27.34;24.01953;943.7766;;;;
2020/03/19 10:39:22;;;;;;;4.4;2.2;;;;;;;27.36;25.20605;943.7766;;;;
2020/03/19 10:41:48;;;;;;;6.2;2.7;;;;;;;26.3;27.04004;943.7894;;;;
2020/03/19 10:44:13;;;;;;;12.8;2.9;;;;;;;26.44;26.74023;943.7612;;;;
2020/03/19 10:46:38;;;;;;;5;2.4;;;;;;;25.98;26.97363;943.7452;;;;
2020/03/19 10:49:04;;;;;;;5;2.6;;;;;;;26.3;26.85059;943.7413;;;;
2020/03/19 10:51:29;;;;;;;6.5;2.9;;;;;;;26.33;27.66895;943.7388;;;;
2020/03/19 10:53:54;;;;;;;6.1;3.1;;;;;;;26.69;27.96387;943.6705;;;;
2020/03/19 10:56:19;;;;;;;5.8;3.2;;;;;;;26.67;27.64355;943.7111;;;;
2020/03/19 10:58:45;;;;;;;7;3.5;;;;;;;26.55;27.81348;943.6151;;;;
2020/03/19 11:01:16;;;;;;;5.8;3.4;;;;;;;26.05;28.36133;943.6888;;;;
2020/03/19 11:03:35;;;;;;;6.9;3.8;;;;;;;25.35;30.38379;943.6365;;;;
2020/03/19 11:06:00;;;;;;;7.2;3.7;;;;;;;25.97;28.85254;943.6428;;;;
2020/03/19 11:08:25;;;;;;;6;3.8;;;;;;;26.74;27.94336;943.5274;;;;
2020/03/19 11:10:50;;;;;;;5.8;3.8;;;;;;;26.41;28.05273;943.5825;;;;
2020/03/19 11:13:15;;;;;;;4.9;3.5;;;;;;;28.07;25.62598;943.4637;;;;
2020/03/19 11:15:40;;;;;;;4.8;3.4;;;;;;;28.69;24.63867;943.4294;;;;
2020/03/19 11:18:05;;;;;;;7.3;3.3;;;;;;;29.06;23.71777;943.4269;;;;
2020/03/19 11:20:33;;;;;;;6;3.2;;;;;;;29.27;24.47949;943.3934;;;;
2020/03/19 11:22:58;;;;;;;6.5;3.6;;;;;;;28.25;25.64746;943.3951;;;;
2020/03/19 11:25:24;;;;;;;5.9;3.2;;;;;;;27.75;25.84473;943.3122;;;;
2020/03/19 11:27:50;;;;;;;7;3.7;;;;;;;28.24;26.84766;943.2883;;;;
2020/03/19 11:30:14;;;;;;;4.8;3.4;;;;;;;27.39;26.63184;943.2419;;;;
2020/03/19 11:32:40;;;;;;;6.5;3.5;;;;;;;27.11;26.93457;943.2084;;;;
2020/03/19 11:35:05;;;;;;;6.1;3.4;;;;;;;27.68;26.04297;943.1517;;;;
2020/03/19 11:37:30;;;;;;;6.9;3.9;;;;;;;28.4;25.09766;943.1582;;;;
2020/03/19 11:39:55;;;;;;;6;4.1;;;;;;;29.85;24.00977;943.1861;;;;
2020/03/19 11:42:20;;;;;;;6.2;4.2;;;;;;;31.18;21.67578;943.1389;;;;
2020/03/19 11:44:46;;;;;;;6;4.1;;;;;;;31.09;22.83203;943.0571;;;;
2020/03/19 11:47:11;;;;;;;6.5;4;;;;;;;29.23;24.77441;943.0287;;;;
2020/03/19 11:49:36;;;;;;;6.8;4.2;;;;;;;28.61;25.13379;943.0669;;;;
2020/03/19 11:52:01;;;;;;;8.9;4.7;;;;;;;28.99;24.38184;943.0128;;;;
2020/03/19 11:54:26;;;;;;;8.2;4.4;;;;;;;28.83;25.15723;942.9564;;;;
2020/03/19 11:56:51;;;;;;;6.1;4.2;;;;;;;29.13;24.70996;942.9891;;;;
2020/03/19 11:59:16;;;;;;;6.9;3.8;;;;;;;29.87;23.74805;942.8715;;;;
2020/03/19 12:01:42;;;;;;;6.7;4.1;;;;;;;29.39;24.86719;942.9288;;;;
2020/03/19 12:04:07;;;;;;;5.7;4;;;;;;;30.13;23.39258;942.8286;;;;
2020/03/19 12:06:32;;;;;;;5.3;3.6;;;;;;;30.35;23.12891;942.8513;;;;
2020/03/19 12:08:57;;;;;;;8;3.5;;;;;;;30.58;22.74609;942.8033;;;;
2020/03/19 12:11:22;;;;;;;6.6;3.7;;;;;;;31.41;21.29297;942.7906;;;;
2020/03/19 12:13:48;;;;;;;5.7;4;;;;;;;30.63;22.5459;942.796;;;;
2020/03/19 12:16:12;;;;;;;10.1;4.1;;;;;;;31.05;22.21973;942.7256;;;;
2020/03/19 12:18:37;;;;;;;7.1;4;;;;;;;31.98;20.51563;942.6887;;;;
2020/03/19 12:21:02;;;;;;;7.2;3.7;;;;;;;33.54;19.34766;942.7067;;;;
2020/03/19 12:23:27;;;;;;;7.2;3.9;;;;;;;33.04;20.0957;942.6024;;;;
2020/03/19 12:25:52;;;;;;;7.6;3.9;;;;;;;31.42;21.5918;942.5792;;;;
2020/03/19 12:28:18;;;;;;;7.4;4.4;;;;;;;31.4;21.57813;942.567;;;;
2020/03/19 12:30:43;;;;;;;8;3.6;;;;;;;30.61;22.55664;942.5801;;;;
2020/03/19 12:33:08;;;;;;;8.2;4.2;;;;;;;29.62;24.16406;942.575;;;;
2020/03/19 12:35:33;;;;;;;7.8;4.2;;;;;;;29.5;24.40918;942.5818;;;;
2020/03/19 12:37:58;;;;;;;8.1;4.3;;;;;;;30.38;23.05859;942.5627;;;;
2020/03/19 12:40:23;;;;;;;8.3;4.2;;;;;;;29.7;24.24023;942.4911;;;;
2020/03/19 12:42:48;;;;;;;7.4;4.2;;;;;;;29.48;24.14551;942.4855;;;;
2020/03/19 12:45:14;;;;;;;7.6;4.3;;;;;;;29.02;25.17969;942.4875;;;;
2020/03/19 12:47:38;;;;;;;5.8;4;;;;;;;29.2;24.46387;942.4883;;;;
2020/03/19 12:50:04;;;;;;;7.6;4.1;;;;;;;29.43;24.27344;942.4378;;;;
2020/03/19 12:52:29;;;;;;;5.4;4.4;;;;;;;29.03;25.44238;942.4391;;;;
2020/03/19 12:54:54;;;;;;;7;3.9;;;;;;;29.04;24.82422;942.4256;;;;
2020/03/19 12:57:19;;;;;;;6.7;4.3;;;;;;;29.54;24.43457;942.389;;;;
2020/03/19 13:00:05;;;;;;;5.9;4;;;;;;;30.43;24.02832;942.4133;;;;
2020/03/19 13:02:27;;;;;;;6.2;4.2;;;;;;;31.51;21.87109;942.3312;;;;
2020/03/19 13:04:52;;;;;;;6.8;4.2;;;;;;;31.72;21.91797;942.2656;;;;
2020/03/19 13:07:18;;;;;;;7.4;4.1;;;;;;;30.52;22.88672;942.2633;;;;
2020/03/19 13:09:43;;;;;;;6.6;4;;;;;;;30.43;22.97754;942.1831;;;;
2020/03/19 13:12:08;;;;;;;6.4;4.2;;;;;;;30.69;23.0625;942.2218;;;;
2020/03/19 13:14:33;;;;;;;7.1;4;;;;;;;29.87;23.41406;942.1305;;;;
2020/03/19 13:16:58;;;;;;;6.6;4.3;;;;;;;29.73;23.91992;942.1241;;;;
2020/03/19 13:19:23;;;;;;;6.5;4.5;;;;;;;29.1;25.04199;942.1594;;;;
2020/03/19 13:21:48;;;;;;;7.2;4;;;;;;;29.39;24.58105;942.1586;;;;
2020/03/19 13:24:14;;;;;;;9.5;4.5;;;;;;;29.16;24.3418;942.0664;;;;
2020/03/19 13:26:39;;;;;;;8.1;4.4;;;;;;;28.37;25.92871;942.0469;;;;
2020/03/19 13:29:04;;;;;;;7.4;4.6;;;;;;;28.46;26.46875;942.0108;;;;
2020/03/19 13:31:30;;;;;;;8.9;4.7;;;;;;;28.22;25.58691;942.0486;;;;
2020/03/19 13:33:54;;;;;;;9;5.1;;;;;;;27.54;27.54199;942.0925;;;;
2020/03/19 13:36:19;;;;;;;7.9;4.6;;;;;;;28.06;26.21973;941.9756;;;;
2020/03/19 13:38:46;;;;;;;8.1;4.4;;;;;;;27.63;27.25098;941.9102;;;;
2020/03/19 13:41:11;;;;;;;7.3;4.4;;;;;;;26.69;28.31934;941.988;;;;
2020/03/19 13:43:37;;;;;;;7.8;4.6;;;;;;;26.58;28.50195;941.8995;;;;
2020/03/19 13:46:02;;;;;;;7.3;4.6;;;;;;;26.62;29.4873;941.9172;;;;
2020/03/19 13:48:28;;;;;;;10.3;4.5;;;;;;;26.8;28.31348;941.8234;;;;
2020/03/19 13:50:53;;;;;;;7.9;4.5;;;;;;;28.07;26.25586;941.8954;;;;
2020/03/19 13:53:18;;;;;;;8.4;4.5;;;;;;;27.02;27.79492;941.7853;;;;
2020/03/19 13:55:44;;;;;;;7.8;4.5;;;;;;;26.75;28.60742;941.6803;;;;
2020/03/19 13:58:09;;;;;;;7.7;4.4;;;;;;;26.92;27.29102;941.7672;;;;
2020/03/19 14:00:35;;;;;;;8.8;4.1;;;;;;;27.72;26.65137;941.7941;;;;
2020/03/19 14:03:00;;;;;;;7.4;4.1;;;;;;;27.21;27.6875;941.7175;;;;
2020/03/19 14:05:26;;;;;;;8.5;4.6;;;;;;;27.25;27.23926;941.7194;;;;
2020/03/19 14:07:53;;;;;;;7.6;4.2;;;;;;;26.64;28.0791;941.7217;;;;
2020/03/19 14:10:18;;;;;;;7;4.4;;;;;;;27.42;26.30078;941.7497;;;;
2020/03/19 14:12:43;;;;;;;8.8;4.3;;;;;;;27.21;27.58105;941.7971;;;;
2020/03/19 14:15:08;;;;;;;7.1;4.3;;;;;;;26.94;27.51758;941.7596;;;;